In Rescue
 
Open Full Screen Window  High Contrast Mode
Wind Gusting 00 knots
03
May 13, 2021 12:35 PM EDT
Weather Information
Wind Direction
  350 °
Wind Speed
  03 kt (3 mph)
Wind Gust
  00 kt (0 mph)
Altimeter
30.36 in
Visibility
10 SM
Temperature
17° C
63° F
Dewpoint
-08° C
18° F
Humidity
17%
1hr Rain Fall
00.00 in.
24hr Rain Fall
00.00 in.
Sky Condition
Clear
VFR

METAR KY31 131635Z AUTO 35003KT 10SM CLR 17/M08 A3036 RMK AO2 T01701083

FAA Disclaimer: The data displayed is for advisory purposes only and is not to be used for flight planning or operations.